Time;durP1;ratioP1;P1;durP2;ratioP2;P2;SDS_P1;SDS_P2;PMS_P1;PMS_P2;Temp;Humidity;BMP_temperature;BMP_pressure;BME280_temperature;BME280_humidity;BME280_pressure;Samples;Min_cycle;Max_cycle;Signal;HPM_P1;HPM_P2
2022/10/09 00:00:27;;;;;;;4.05;2.10;;;9.20;99.90;;;;;;5037011;28;20210;-70
2022/10/09 00:02:54;;;;;;;3.53;1.95;;;9.10;99.90;;;;;;5036331;28;20205;-70
2022/10/09 00:05:25;;;;;;;2.50;2.10;;;9.10;99.90;;;;;;5036761;28;20229;-70
2022/10/09 00:07:52;;;;;;;3.10;2.67;;;9.10;99.90;;;;;;5036926;28;20567;-70
2022/10/09 00:10:19;;;;;;;3.47;3.03;;;9.00;99.90;;;;;;5036489;28;20220;-70
2022/10/09 00:12:46;;;;;;;3.50;2.55;;;9.00;99.90;;;;;;5036305;28;20591;-70
2022/10/09 00:15:13;;;;;;;3.40;2.83;;;9.00;99.90;;;;;;5036528;28;20222;-70
2022/10/09 00:17:40;;;;;;;3.80;2.53;;;8.90;99.90;;;;;;5036783;28;20229;-70
2022/10/09 00:20:07;;;;;;;2.97;2.55;;;8.90;99.90;;;;;;5036785;28;20205;-70
2022/10/09 00:22:36;;;;;;;3.40;2.47;;;8.90;99.90;;;;;;5036296;28;20208;-70
2022/10/09 00:25:02;;;;;;;4.55;2.80;;;8.80;99.90;;;;;;5036575;28;20229;-70
2022/10/09 00:27:29;;;;;;;3.80;2.70;;;8.80;99.90;;;;;;5036751;28;20227;-69
2022/10/09 00:29:56;;;;;;;4.18;2.50;;;8.80;99.90;;;;;;5036471;28;20202;-70
2022/10/09 00:32:23;;;;;;;4.57;2.90;;;8.70;99.90;;;;;;5035939;28;20209;-70
2022/10/09 00:34:51;;;;;;;3.03;2.10;;;8.70;99.90;;;;;;5036558;28;20221;-70
2022/10/09 00:37:18;;;;;;;3.05;2.75;;;8.70;99.90;;;;;;5032763;28;20222;-69
2022/10/09 00:39:46;;;;;;;2.85;2.65;;;8.70;99.90;;;;;;5033347;28;20202;-69
2022/10/09 00:42:13;;;;;;;3.05;2.20;;;8.60;99.90;;;;;;5032591;28;20205;-69
2022/10/09 00:44:56;;;;;;;4.63;2.60;;;8.60;99.90;;;;;;5033447;28;20235;-70
2022/10/09 00:47:28;;;;;;;5.85;2.53;;;8.60;99.90;;;;;;5033453;28;20198;-70
2022/10/09 00:49:58;;;;;;;3.25;2.65;;;8.60;99.90;;;;;;5033291;28;20201;-70
2022/10/09 00:52:26;;;;;;;2.63;2.42;;;8.60;99.90;;;;;;5032522;28;20210;-70
2022/10/09 00:54:55;;;;;;;4.75;2.45;;;8.50;99.90;;;;;;5033122;28;20222;-70
2022/10/09 00:57:23;;;;;;;7.72;2.70;;;8.50;99.90;;;;;;5033211;28;20232;-70
2022/10/09 00:59:50;;;;;;;5.95;2.95;;;8.50;99.90;;;;;;5033176;28;20209;-70
2022/10/09 01:02:17;;;;;;;3.38;3.08;;;8.40;99.90;;;;;;5032307;28;20208;-70
2022/10/09 01:04:44;;;;;;;3.70;3.40;;;8.40;99.90;;;;;;5033036;28;20224;-70
2022/10/09 01:07:26;;;;;;;3.67;2.88;;;8.40;99.90;;;;;;5032797;28;20582;-70
2022/10/09 01:10:00;;;;;;;3.55;3.25;;;8.40;99.90;;;;;;5032943;28;20581;-70
2022/10/09 01:12:37;;;;;;;3.65;3.10;;;8.40;99.90;;;;;;5032364;28;20202;-70
2022/10/09 01:15:15;;;;;;;3.05;2.60;;;8.30;99.90;;;;;;5032648;28;20228;-70
2022/10/09 01:17:45;;;;;;;3.58;2.60;;;8.30;99.90;;;;;;5033112;28;20297;-70
2022/10/09 01:20:32;;;;;;;2.95;2.75;;;8.30;99.90;;;;;;5032446;28;20718;-70
2022/10/09 01:23:14;;;;;;;6.10;3.33;;;8.20;99.90;;;;;;5031929;28;20227;-69
2022/10/09 01:25:53;;;;;;;3.50;2.90;;;8.20;99.90;;;;;;5032573;28;20233;-70
2022/10/09 01:28:24;;;;;;;6.20;2.75;;;8.20;99.90;;;;;;5032429;28;20206;-70
2022/10/09 01:30:51;;;;;;;2.92;2.60;;;8.20;99.90;;;;;;5032610;28;20233;-70
2022/10/09 01:33:18;;;;;;;6.00;3.22;;;8.10;99.90;;;;;;5031907;28;20198;-70
2022/10/09 01:35:46;;;;;;;4.18;3.28;;;8.10;99.90;;;;;;5032456;28;20205;-70
2022/10/09 01:38:14;;;;;;;2.83;2.60;;;8.10;99.90;;;;;;5032058;28;20220;-70
2022/10/09 01:40:41;;;;;;;2.78;2.53;;;8.10;99.90;;;;;;5032601;28;20272;-70
2022/10/09 01:43:08;;;;;;;7.05;2.75;;;8.10;99.90;;;;;;5031540;28;20199;-69
2022/10/09 01:45:40;;;;;;;3.35;3.05;;;8.00;99.90;;;;;;5032111;28;20228;-69
2022/10/09 01:48:09;;;;;;;4.80;2.75;;;8.00;99.90;;;;;;5031736;28;20198;-69
2022/10/09 01:50:42;;;;;;;2.67;2.20;;;8.00;99.90;;;;;;5032198;28;20206;-70
2022/10/09 01:53:13;;;;;;;3.42;3.00;;;8.00;99.90;;;;;;5031765;28;20198;-70
2022/10/09 01:55:49;;;;;;;4.22;3.17;;;7.90;99.90;;;;;;5032036;28;20218;-69
2022/10/09 01:58:20;;;;;;;3.63;3.10;;;7.90;99.90;;;;;;5031813;28;20711;-70
2022/10/09 02:00:54;;;;;;;3.80;3.28;;;7.90;99.90;;;;;;5032005;28;20211;-70
2022/10/09 02:03:23;;;;;;;3.60;3.30;;;7.90;99.90;;;;;;5030976;28;20208;-70
2022/10/09 02:05:53;;;;;;;4.60;2.95;;;7.90;99.90;;;;;;5031929;28;20209;-70
2022/10/09 02:08:21;;;;;;;3.78;3.38;;;7.80;99.90;;;;;;5031768;28;20590;-69
2022/10/09 02:10:51;;;;;;;4.70;3.15;;;7.80;99.90;;;;;;5031828;28;20556;-70
2022/10/09 02:13:18;;;;;;;4.47;3.10;;;7.80;99.90;;;;;;5031082;28;20216;-69
2022/10/09 02:15:50;;;;;;;6.70;2.90;;;7.80;99.90;;;;;;5031600;28;20225;-70
2022/10/09 02:18:24;;;;;;;3.63;3.08;;;7.80;99.90;;;;;;5031424;28;20229;-69
2022/10/09 02:20:54;;;;;;;3.10;2.80;;;7.70;99.90;;;;;;5031572;28;20668;-69
2022/10/09 02:23:24;;;;;;;2.85;2.65;;;7.70;99.90;;;;;;5031040;28;20208;-70
2022/10/09 02:25:52;;;;;;;2.83;2.20;;;7.70;99.90;;;;;;5031665;28;20589;-69
2022/10/09 02:28:19;;;;;;;3.45;3.15;;;7.60;99.90;;;;;;5031321;28;20673;-70
2022/10/09 02:30:55;;;;;;;4.05;2.90;;;7.60;99.90;;;;;;5031554;28;20207;-69
2022/10/09 02:33:27;;;;;;;3.67;3.05;;;7.60;99.90;;;;;;5030907;28;20202;-69
2022/10/09 02:35:54;;;;;;;3.58;2.83;;;7.60;99.90;;;;;;5031403;28;20678;-69
2022/10/09 02:38:20;;;;;;;3.67;3.05;;;7.50;99.90;;;;;;5031255;28;20216;-69
2022/10/09 02:40:47;;;;;;;4.10;3.35;;;7.50;99.90;;;;;;5031282;28;20588;-69
2022/10/09 02:43:14;;;;;;;3.17;2.63;;;7.50;99.90;;;;;;5030326;28;20204;-70
2022/10/09 02:45:40;;;;;;;3.97;3.08;;;7.50;99.90;;;;;;5031196;28;20218;-70
2022/10/09 02:48:08;;;;;;;4.25;3.25;;;7.50;99.90;;;;;;5031098;28;20528;-70
2022/10/09 02:50:36;;;;;;;3.05;2.55;;;7.40;99.90;;;;;;5031239;28;20231;-70
2022/10/09 02:53:02;;;;;;;3.53;3.22;;;7.40;99.90;;;;;;5030414;28;20592;-69
2022/10/09 02:55:29;;;;;;;3.33;2.80;;;7.40;99.90;;;;;;5031178;28;20231;-70
2022/10/09 02:57:56;;;;;;;3.63;3.33;;;7.40;99.90;;;;;;5030999;28;20224;-69
2022/10/09 03:00:22;;;;;;;5.40;3.10;;;7.40;99.90;;;;;;5030127;28;20200;-70
2022/10/09 03:02:49;;;;;;;3.05;2.85;;;7.40;99.90;;;;;;5030300;28;20200;-69
2022/10/09 03:05:18;;;;;;;4.75;3.40;;;7.40;99.90;;;;;;5030679;28;20254;-70
2022/10/09 03:07:50;;;;;;;3.42;3.00;;;7.30;99.90;;;;;;5030897;28;20592;-69
2022/10/09 03:10:17;;;;;;;4.60;3.05;;;7.30;99.90;;;;;;5031064;28;20569;-70
2022/10/09 03:12:43;;;;;;;5.95;2.92;;;7.30;99.90;;;;;;5030267;28;20213;-70
2022/10/09 03:15:11;;;;;;;3.10;2.80;;;7.30;99.90;;;;;;5030558;28;20225;-70
2022/10/09 03:17:37;;;;;;;3.55;3.25;;;7.30;99.90;;;;;;5030772;28;20676;-69
2022/10/09 03:20:06;;;;;;;3.40;3.10;;;7.20;99.90;;;;;;5030454;28;20248;-69
2022/10/09 03:22:34;;;;;;;3.92;3.58;;;7.20;99.90;;;;;;5030144;28;20709;-69
2022/10/09 03:25:00;;;;;;;3.55;3.15;;;7.20;99.90;;;;;;5030378;28;20224;-70
2022/10/09 03:27:29;;;;;;;3.30;3.00;;;7.20;99.90;;;;;;5030787;28;20213;-70
2022/10/09 03:29:56;;;;;;;3.95;2.97;;;7.20;99.90;;;;;;5030421;28;20200;-69
2022/10/09 03:32:23;;;;;;;4.40;3.65;;;7.10;99.90;;;;;;5030160;28;20214;-69
2022/10/09 03:34:49;;;;;;;3.67;3.03;;;7.10;99.90;;;;;;5030510;28;20573;-70
2022/10/09 03:37:17;;;;;;;4.10;3.10;;;7.10;99.90;;;;;;5030335;28;20206;-70
2022/10/09 03:39:45;;;;;;;2.97;2.22;;;7.10;99.90;;;;;;5030443;28;20221;-69
2022/10/09 03:42:11;;;;;;;4.40;2.80;;;7.10;99.90;;;;;;5029715;28;20209;-69
2022/10/09 03:44:38;;;;;;;4.90;3.00;;;7.10;99.90;;;;;;5030387;28;20245;-69
2022/10/09 03:47:05;;;;;;;3.22;2.65;;;7.10;99.90;;;;;;5030349;28;20203;-69
2022/10/09 03:49:32;;;;;;;3.20;2.90;;;7.00;99.90;;;;;;5030683;28;20423;-70
2022/10/09 03:51:59;;;;;;;6.20;2.85;;;7.00;99.90;;;;;;5029601;28;20216;-69
2022/10/09 03:54:25;;;;;;;4.47;3.45;;;7.00;99.90;;;;;;5030268;28;20226;-70
2022/10/09 03:56:54;;;;;;;4.40;2.90;;;7.00;99.90;;;;;;5030470;28;20210;-69
2022/10/09 03:59:20;;;;;;;3.50;2.65;;;7.00;99.90;;;;;;5030124;28;20222;-69
2022/10/09 04:01:47;;;;;;;4.95;2.97;;;6.90;99.90;;;;;;5029840;28;20235;-70
2022/10/09 04:04:14;;;;;;;2.92;2.50;;;6.90;99.90;;;;;;5030066;28;20596;-69
2022/10/09 04:06:41;;;;;;;5.40;3.15;;;6.90;99.90;;;;;;5030255;28;20214;-69
2022/10/09 04:09:08;;;;;;;3.80;3.22;;;6.90;99.90;;;;;;5029957;28;20202;-70
2022/10/09 04:11:34;;;;;;;3.67;2.65;;;6.90;99.90;;;;;;5031836;28;20208;-69
2022/10/09 04:14:03;;;;;;;3.72;3.33;;;6.90;99.90;;;;;;5033837;28;20705;-70
2022/10/09 04:16:30;;;;;;;2.97;2.67;;;6.90;99.90;;;;;;5034050;28;20206;-69
2022/10/09 04:18:57;;;;;;;2.92;2.72;;;6.90;99.90;;;;;;5033775;28;20233;-69
2022/10/09 04:21:24;;;;;;;4.50;3.47;;;6.80;99.90;;;;;;5033240;28;20599;-70
2022/10/09 04:23:51;;;;;;;3.33;2.53;;;6.90;99.90;;;;;;5033797;28;20226;-70
2022/10/09 04:26:18;;;;;;;3.00;2.70;;;6.80;99.90;;;;;;5033592;28;20650;-70
2022/10/09 04:28:44;;;;;;;3.20;2.90;;;6.80;99.90;;;;;;5034143;28;20573;-70
2022/10/09 04:31:12;;;;;;;4.47;3.10;;;6.80;99.90;;;;;;5033277;28;20207;-70
2022/10/09 04:33:39;;;;;;;3.17;2.55;;;6.80;99.90;;;;;;5033710;28;20571;-70
2022/10/09 04:36:06;;;;;;;3.35;3.05;;;6.80;99.90;;;;;;5033334;28;20217;-70
2022/10/09 04:38:33;;;;;;;3.20;2.90;;;6.80;99.90;;;;;;5033626;28;20257;-70
2022/10/09 04:41:02;;;;;;;4.47;3.13;;;6.80;99.90;;;;;;5033252;28;20202;-69
2022/10/09 04:43:29;;;;;;;3.75;2.80;;;6.80;99.90;;;;;;5097372;23;20234;-93
2022/10/09 04:45:57;;;;;;;2.60;2.40;;;6.80;99.90;;;;;;5068595;28;20205;-94
2022/10/09 04:48:26;;;;;;;3.08;2.78;;;6.80;99.90;;;;;;5068586;28;20206;-93
2022/10/09 04:50:53;;;;;;;3.55;2.35;;;6.70;99.90;;;;;;5066282;28;20206;-91
2022/10/09 04:53:20;;;;;;;3.45;2.75;;;6.70;99.90;;;;;;5066058;28;20224;-93
2022/10/09 04:55:47;;;;;;;3.10;2.80;;;6.70;99.90;;;;;;5066871;28;20212;-92
2022/10/09 04:58:14;;;;;;;4.95;2.60;;;6.70;99.90;;;;;;5061405;28;20209;-93
2022/10/09 05:00:41;;;;;;;5.95;2.70;;;6.70;99.90;;;;;;5063563;28;20288;-91
2022/10/09 05:03:08;;;;;;;4.55;2.95;;;6.70;99.90;;;;;;5060460;28;20218;-92
2022/10/09 05:05:36;;;;;;;3.42;3.00;;;6.70;99.90;;;;;;5068312;28;20206;-92
2022/10/09 05:08:04;;;;;;;6.00;2.92;;;6.70;99.90;;;;;;5073193;28;20293;-93
2022/10/09 05:10:31;;;;;;;4.47;2.70;;;6.70;99.90;;;;;;5073685;28;20265;-92
2022/10/09 05:12:57;;;;;;;2.95;2.75;;;6.70;99.90;;;;;;5071408;28;20316;-92
2022/10/09 05:15:24;;;;;;;3.22;2.67;;;6.60;99.90;;;;;;5068762;28;20197;-91
2022/10/09 05:17:51;;;;;;;2.50;2.30;;;6.60;99.90;;;;;;5064526;28;20202;-92
2022/10/09 05:20:18;;;;;;;3.33;2.80;;;6.60;99.90;;;;;;5063308;28;20226;-91
2022/10/09 05:22:47;;;;;;;2.58;2.25;;;6.90;99.90;;;;;;5062864;28;20404;-92
2022/10/09 05:25:26;;;;;;;3.40;3.05;;;6.80;99.90;;;;;;5066536;28;20459;-94
2022/10/09 05:27:52;;;;;;;5.30;2.90;;;6.70;99.90;;;;;;5067982;23;20234;-68
2022/10/09 05:30:19;;;;;;;2.97;2.67;;;6.70;99.90;;;;;;5032178;28;20590;-69
2022/10/09 05:32:46;;;;;;;5.05;4.55;;;6.70;99.90;;;;;;5031668;28;20206;-68
2022/10/09 05:35:12;;;;;;;4.63;2.75;;;6.60;99.90;;;;;;5032389;28;20256;-68
2022/10/09 05:37:39;;;;;;;2.47;2.28;;;6.60;99.90;;;;;;5032209;28;20205;-68
2022/10/09 05:40:09;;;;;;;3.08;2.78;;;6.60;99.90;;;;;;5032136;28;20223;-68
2022/10/09 05:42:35;;;;;;;3.30;2.70;;;6.60;99.90;;;;;;5031965;28;20204;-69
2022/10/09 05:45:02;;;;;;;2.83;2.53;;;6.60;99.90;;;;;;5032164;28;20890;-69
2022/10/09 05:47:30;;;;;;;3.70;2.95;;;6.60;99.90;;;;;;5032190;28;20219;-69
2022/10/09 05:49:57;;;;;;;3.55;3.22;;;6.60;99.90;;;;;;5032036;28;20199;-69
2022/10/09 05:52:23;;;;;;;2.55;2.35;;;6.60;99.90;;;;;;5031703;28;20226;-68
2022/10/09 05:54:50;;;;;;;4.70;3.25;;;6.60;99.90;;;;;;5031846;28;20222;-68
2022/10/09 05:57:18;;;;;;;3.40;2.78;;;6.60;99.90;;;;;;5028126;28;20194;-68
2022/10/09 05:59:45;;;;;;;2.42;2.22;;;6.60;99.90;;;;;;5021338;28;20219;-69
2022/10/09 06:02:12;;;;;;;3.53;2.72;;;6.60;99.90;;;;;;5017170;28;20203;-68
2022/10/09 06:04:38;;;;;;;4.30;2.90;;;6.60;99.90;;;;;;5011989;28;20231;-68
2022/10/09 06:07:05;;;;;;;3.05;2.65;;;6.60;99.90;;;;;;5011807;28;20218;-68
2022/10/09 06:09:32;;;;;;;2.70;2.50;;;6.60;99.90;;;;;;5012070;28;20701;-69
2022/10/09 06:11:58;;;;;;;4.28;3.13;;;6.60;99.90;;;;;;5010928;28;20207;-69
2022/10/09 06:14:26;;;;;;;4.15;3.13;;;6.50;99.90;;;;;;5012008;28;20225;-68
2022/10/09 06:16:53;;;;;;;2.78;2.58;;;6.60;99.90;;;;;;5011993;28;20212;-68
2022/10/09 06:19:20;;;;;;;3.00;2.63;;;6.60;99.90;;;;;;5011867;28;20223;-69
2022/10/09 06:21:47;;;;;;;3.92;2.90;;;6.60;99.90;;;;;;5009613;28;20593;-68
2022/10/09 06:24:19;;;;;;;3.72;2.80;;;6.60;99.90;;;;;;5011639;28;20761;-69
2022/10/09 06:26:46;;;;;;;4.50;3.35;;;6.70;99.90;;;;;;5017100;28;20198;-69
2022/10/09 06:29:13;;;;;;;4.25;2.90;;;6.70;99.90;;;;;;5021838;28;20205;-69
2022/10/09 06:31:41;;;;;;;3.72;2.90;;;6.70;99.90;;;;;;5023045;28;20635;-68
2022/10/09 06:34:10;;;;;;;3.28;2.97;;;6.80;99.90;;;;;;5030488;28;20227;-68
2022/10/09 06:36:37;;;;;;;2.97;2.58;;;6.80;99.90;;;;;;5031281;28;20198;-69
2022/10/09 06:39:05;;;;;;;3.80;2.72;;;6.80;99.90;;;;;;5031117;28;20230;-69
2022/10/09 06:41:32;;;;;;;4.35;2.97;;;6.90;99.90;;;;;;5030841;28;20208;-68
2022/10/09 06:44:01;;;;;;;5.68;3.30;;;6.90;99.90;;;;;;5031026;28;20231;-69
2022/10/09 06:46:30;;;;;;;3.60;3.08;;;7.00;99.90;;;;;;5031149;28;20214;-69
2022/10/09 06:49:00;;;;;;;4.65;3.00;;;7.10;99.90;;;;;;5030836;28;20215;-69
2022/10/09 06:51:28;;;;;;;3.25;2.95;;;7.20;99.90;;;;;;5030654;28;20203;-68
2022/10/09 06:53:57;;;;;;;3.63;2.50;;;7.40;99.90;;;;;;5030764;28;20226;-69
2022/10/09 06:56:26;;;;;;;2.90;2.60;;;7.50;99.90;;;;;;5016111;28;20210;-68
2022/10/09 06:58:53;;;;;;;4.85;3.00;;;7.60;99.90;;;;;;5016787;28;20548;-69
2022/10/09 07:01:22;;;;;;;4.63;3.55;;;7.70;99.90;;;;;;5018307;28;20580;-68
2022/10/09 07:03:53;;;;;;;4.03;3.63;;;7.90;99.90;;;;;;5013451;28;20229;-68
2022/10/09 07:06:23;;;;;;;3.60;3.35;;;8.10;99.90;;;;;;5023818;28;20248;-68
2022/10/09 07:08:53;;;;;;;4.57;3.22;;;8.30;99.90;;;;;;5008780;28;20209;-69
2022/10/09 07:11:22;;;;;;;6.85;3.63;;;8.40;99.90;;;;;;5007876;28;20583;-68
2022/10/09 07:13:50;;;;;;;4.10;3.30;;;8.60;99.90;;;;;;5008326;28;20232;-68
2022/10/09 07:16:20;;;;;;;5.55;3.50;;;8.80;99.90;;;;;;5008948;28;20206;-69
2022/10/09 07:18:47;;;;;;;4.60;4.20;;;9.00;99.90;;;;;;5008785;28;20206;-68
2022/10/09 07:21:14;;;;;;;5.00;3.47;;;9.20;99.90;;;;;;5008981;28;20226;-69
2022/10/09 07:23:45;;;;;;;6.82;3.70;;;9.40;99.90;;;;;;5014488;28;20203;-69
2022/10/09 07:26:15;;;;;;;4.13;3.20;;;9.60;99.90;;;;;;5029183;28;20226;-69
2022/10/09 07:28:43;;;;;;;6.97;3.55;;;9.80;99.90;;;;;;5029975;28;20212;-68
2022/10/09 07:31:12;;;;;;;5.40;3.72;;;10.00;99.90;;;;;;5029633;28;20269;-69
2022/10/09 07:33:40;;;;;;;5.93;3.58;;;10.20;99.90;;;;;;5030460;28;20600;-69
2022/10/09 07:36:08;;;;;;;5.63;3.20;;;10.40;99.90;;;;;;5027894;28;20325;-69
2022/10/09 07:38:35;;;;;;;4.22;3.05;;;10.60;99.90;;;;;;5030642;28;20207;-69
2022/10/09 07:41:06;;;;;;;3.67;2.85;;;10.80;99.90;;;;;;5029552;28;20233;-69
2022/10/09 07:43:35;;;;;;;3.58;2.83;;;10.90;99.90;;;;;;5028947;28;20198;-69
2022/10/09 07:46:05;;;;;;;3.17;2.85;;;11.10;99.90;;;;;;5031184;28;20694;-69
2022/10/09 07:48:33;;;;;;;5.15;3.35;;;11.30;99.90;;;;;;5033102;28;20230;-69
2022/10/09 07:51:08;;;;;;;5.90;3.55;;;11.50;99.90;;;;;;5031849;28;20256;-68
2022/10/09 07:53:36;;;;;;;4.70;2.88;;;11.70;99.90;;;;;;5032069;28;20194;-69
2022/10/09 07:56:05;;;;;;;3.67;2.65;;;11.90;99.90;;;;;;5031018;28;20210;-68
2022/10/09 07:58:33;;;;;;;4.20;3.13;;;12.10;99.90;;;;;;5034346;28;20206;-69
2022/10/09 08:01:05;;;;;;;4.10;3.05;;;12.30;99.90;;;;;;5033759;28;20222;-69
2022/10/09 08:03:33;;;;;;;2.83;2.63;;;12.40;99.90;;;;;;5033601;28;20326;-68
2022/10/09 08:06:00;;;;;;;2.88;2.63;;;12.60;99.90;;;;;;5033415;28;20210;-69
2022/10/09 08:08:27;;;;;;;3.35;2.95;;;12.70;99.90;;;;;;5031663;28;20199;-69
2022/10/09 08:10:54;;;;;;;4.13;2.55;;;12.80;99.90;;;;;;5033341;28;20204;-68
2022/10/09 08:13:22;;;;;;;3.77;2.53;;;12.90;99.90;;;;;;5033426;28;20206;-69
2022/10/09 08:15:48;;;;;;;3.10;2.90;;;13.00;99.90;;;;;;5033114;28;20467;-69
2022/10/09 08:18:15;;;;;;;4.40;3.10;;;13.10;99.90;;;;;;5032941;28;20460;-69
2022/10/09 08:20:42;;;;;;;2.90;2.60;;;13.20;99.90;;;;;;5033737;28;20492;-69
2022/10/09 08:23:09;;;;;;;2.70;2.50;;;13.30;99.90;;;;;;5032344;28;20961;-69
2022/10/09 08:25:36;;;;;;;4.57;2.60;;;13.40;99.90;;;;;;5033318;28;20481;-69
2022/10/09 08:28:04;;;;;;;3.30;2.37;;;13.60;99.90;;;;;;5033003;28;20479;-69
2022/10/09 08:30:32;;;;;;;3.80;2.40;;;13.80;99.90;;;;;;5032794;28;20952;-69
2022/10/09 08:32:59;;;;;;;2.43;2.20;;;13.90;99.90;;;;;;5032390;28;20460;-68
2022/10/09 08:35:26;;;;;;;2.33;2.13;;;14.20;99.90;;;;;;5033093;28;20794;-69
2022/10/09 08:37:52;;;;;;;2.70;2.33;;;14.40;99.90;;;;;;5032731;28;20460;-69
2022/10/09 08:40:25;;;;;;;2.53;2.17;;;14.60;99.90;;;;;;5033240;28;20493;-69
2022/10/09 08:42:57;;;;;;;2.10;1.80;;;14.80;99.90;;;;;;5031848;28;20958;-69
2022/10/09 08:45:24;;;;;;;4.93;2.60;;;14.90;99.90;;;;;;5032481;28;20480;-69
2022/10/09 08:47:57;;;;;;;3.47;2.57;;;15.00;99.90;;;;;;5033042;28;20472;-68
2022/10/09 08:50:28;;;;;;;2.50;2.30;;;15.10;99.90;;;;;;5033401;28;20818;-69
2022/10/09 08:52:58;;;;;;;3.07;2.57;;;15.20;99.90;;;;;;5032131;28;20475;-69
2022/10/09 08:55:28;;;;;;;2.30;2.03;;;15.20;99.90;;;;;;5031234;28;20964;-69
2022/10/09 08:57:57;;;;;;;5.50;2.80;;;15.30;99.90;;;;;;5031505;28;20820;-69
2022/10/09 09:00:27;;;;;;;3.13;2.03;;;15.40;99.90;;;;;;5032660;28;20493;-69
2022/10/09 09:03:28;;;;;;;2.67;2.47;;;15.50;99.90;;;;;;5031854;28;20461;-69
2022/10/09 09:06:03;;;;;;;3.97;2.77;;;15.50;99.90;;;;;;5032058;28;20471;-69
2022/10/09 09:08:43;;;;;;;3.77;2.63;;;15.60;99.90;;;;;;5032433;28;20483;-69
2022/10/09 09:11:19;;;;;;;2.67;2.00;;;15.70;99.90;;;;;;5032312;28;20469;-68
2022/10/09 09:13:57;;;;;;;4.10;2.67;;;15.80;99.90;;;;;;5032141;28;20508;-69
2022/10/09 09:16:33;;;;;;;4.20;3.00;;;15.90;99.90;;;;;;5032311;28;20461;-69
2022/10/09 09:19:33;;;;;;;2.93;2.13;;;16.00;99.90;;;;;;5031941;28;20944;-68
2022/10/09 09:22:00;;;;;;;3.70;2.40;;;16.00;99.90;;;;;;5031194;28;20459;-69
2022/10/09 09:24:34;;;;;;;2.50;2.30;;;16.10;99.90;;;;;;5032029;28;20476;-68
2022/10/09 09:27:04;;;;;;;4.03;2.37;;;16.20;99.90;;;;;;5032046;28;20456;-69
2022/10/09 09:29:37;;;;;;;2.60;2.10;;;16.40;99.90;;;;;;5031530;28;20473;-69
2022/10/09 09:32:06;;;;;;;3.87;2.30;;;16.70;99.90;;;;;;5030589;28;20464;-69
2022/10/09 09:34:38;;;;;;;4.13;2.60;;;16.80;99.90;;;;;;5031908;28;20477;-69
2022/10/09 09:37:05;;;;;;;2.33;1.93;;;17.00;99.90;;;;;;5031129;28;20467;-69
2022/10/09 09:39:34;;;;;;;3.30;2.33;;;17.10;99.90;;;;;;5031866;28;20967;-69
2022/10/09 09:42:07;;;;;;;2.97;2.10;;;17.20;99.90;;;;;;5030933;28;20481;-69
2022/10/09 09:44:36;;;;;;;2.17;1.97;;;17.20;99.90;;;;;;5030925;28;20485;-69
2022/10/09 09:47:02;;;;;;;3.40;2.40;;;17.20;99.90;;;;;;5031378;28;20461;-69
2022/10/09 09:49:29;;;;;;;1.93;1.63;;;17.40;99.90;;;;;;5031490;28;20956;-69
2022/10/09 09:52:01;;;;;;;2.57;2.00;;;17.50;99.90;;;;;;5030467;28;20457;-68
2022/10/09 09:54:30;;;;;;;3.03;1.50;;;17.70;99.90;;;;;;5031363;28;20485;-69
2022/10/09 09:56:58;;;;;;;3.00;1.90;;;17.70;99.90;;;;;;5029753;28;20461;-68
2022/10/09 09:59:32;;;;;;;3.20;2.00;;;17.60;99.90;;;;;;5030956;28;20461;-69
2022/10/09 10:02:10;;;;;;;1.87;1.50;;;17.70;99.90;;;;;;5030241;28;20479;-69
2022/10/09 10:04:36;;;;;;;2.13;1.70;;;17.80;99.90;;;;;;5031101;28;20484;-69
2022/10/09 10:07:05;;;;;;;2.47;1.70;;;17.80;99.90;;;;;;5030594;28;20461;-69
2022/10/09 10:09:32;;;;;;;2.93;1.90;;;17.90;99.90;;;;;;5030138;28;20516;-69
2022/10/09 10:12:00;;;;;;;2.27;2.07;;;17.90;99.90;;;;;;5029850;28;20468;-68
2022/10/09 10:14:28;;;;;;;3.00;1.77;;;17.90;99.90;;;;;;5030885;28;20580;-68
2022/10/09 10:16:56;;;;;;;3.17;1.67;;;18.00;99.90;;;;;;5030224;28;20468;-69
2022/10/09 10:19:26;;;;;;;2.60;1.93;;;18.00;99.90;;;;;;5030533;28;20465;-68
2022/10/09 10:21:57;;;;;;;2.50;1.80;;;18.10;99.90;;;;;;5029433;28;20500;-68
2022/10/09 10:24:31;;;;;;;1.77;1.50;;;18.30;99.90;;;;;;5030735;28;20984;-69
2022/10/09 10:27:03;;;;;;;1.80;1.50;;;18.40;99.90;;;;;;5029792;28;20471;-69
2022/10/09 10:29:37;;;;;;;1.67;1.20;;;18.50;99.90;;;;;;5030557;28;20476;-68
2022/10/09 10:32:11;;;;;;;3.73;1.63;;;18.60;99.90;;;;;;5029616;28;20461;-69
2022/10/09 10:34:42;;;;;;;2.90;1.53;;;18.60;99.90;;;;;;5030072;28;20718;-68
2022/10/09 10:37:25;;;;;;;1.93;1.57;;;18.60;99.90;;;;;;5029396;28;20472;-68
2022/10/09 10:39:59;;;;;;;2.33;1.40;;;18.80;99.90;;;;;;5030643;28;20465;-68
2022/10/09 10:42:33;;;;;;;1.60;1.30;;;19.00;99.90;;;;;;5028894;28;20824;-69
2022/10/09 10:45:07;;;;;;;2.40;1.97;;;19.00;99.90;;;;;;5027337;28;20578;-68
2022/10/09 10:47:39;;;;;;;1.10;1.00;;;18.90;99.90;;;;;;5029761;28;20970;-69
2022/10/09 10:50:13;;;;;;;3.30;2.17;;;19.00;99.90;;;;;;5029953;28;20476;-68
2022/10/09 10:52:55;;;;;;;1.80;1.70;;;18.90;99.90;;;;;;5029564;28;20499;-68
2022/10/09 10:55:33;;;;;;;1.97;1.60;;;18.70;99.90;;;;;;5029635;28;20481;-68
2022/10/09 10:58:12;;;;;;;5.43;1.53;;;18.60;99.90;;;;;;5029677;28;20456;-69
2022/10/09 11:00:46;;;;;;;1.60;1.43;;;18.70;99.90;;;;;;5029096;28;20484;-68
2022/10/09 11:03:33;;;;;;;3.73;1.23;;;18.90;99.90;;;;;;5029465;28;20473;-68
2022/10/09 11:06:11;;;;;;;4.13;1.70;;;18.90;99.90;;;;;;5029857;28;20460;-68
2022/10/09 11:08:58;;;;;;;1.87;1.27;;;18.90;99.90;;;;;;5029574;28;20523;-68
2022/10/09 11:11:36;;;;;;;3.23;1.87;;;18.90;99.90;;;;;;5028651;28;20465;-69
2022/10/09 11:14:12;;;;;;;2.20;1.47;;;18.90;99.90;;;;;;5029816;28;20559;-69
2022/10/09 11:16:46;;;;;;;1.90;1.50;;;18.90;99.90;;;;;;5029343;28;20563;-69
2022/10/09 11:19:27;;;;;;;1.23;1.10;;;18.90;99.90;;;;;;5030067;28;20460;-69
2022/10/09 11:22:02;;;;;;;1.43;1.20;;;18.90;99.90;;;;;;5028547;28;20484;-68
2022/10/09 11:24:52;;;;;;;2.03;1.63;;;19.00;99.90;;;;;;5029331;28;20542;-69
2022/10/09 11:27:25;;;;;;;1.97;1.40;;;18.90;99.90;;;;;;5029520;28;20829;-68
2022/10/09 11:29:57;;;;;;;1.57;1.30;;;19.00;99.90;;;;;;5029509;28;20457;-68
2022/10/09 11:32:29;;;;;;;2.03;1.53;;;19.00;99.90;;;;;;5028825;28;20486;-69
2022/10/09 11:35:01;;;;;;;1.30;1.20;;;19.20;99.90;;;;;;5029636;28;21024;-68
2022/10/09 11:37:33;;;;;;;1.77;1.40;;;19.20;99.90;;;;;;5028583;28;20464;-69
2022/10/09 11:40:04;;;;;;;2.10;1.47;;;19.10;99.90;;;;;;5030054;28;20457;-68
2022/10/09 11:42:32;;;;;;;2.83;1.70;;;19.10;99.60;;;;;;5028804;28;21008;-68
2022/10/09 11:45:08;;;;;;;2.43;1.60;;;19.10;99.90;;;;;;5029400;28;20485;-68
2022/10/09 11:47:41;;;;;;;2.87;1.50;;;19.30;99.90;;;;;;5029642;28;20559;-68
2022/10/09 11:50:26;;;;;;;1.67;1.20;;;19.40;99.90;;;;;;5029209;28;20463;-69
2022/10/09 11:53:00;;;;;;;2.00;1.50;;;19.60;99.90;;;;;;5028791;28;20500;-68
2022/10/09 11:55:29;;;;;;;1.50;1.20;;;19.50;99.90;;;;;;5029144;28;20487;-68
2022/10/09 11:58:08;;;;;;;4.40;1.50;;;19.40;99.90;;;;;;5029553;28;20462;-68
2022/10/09 12:00:38;;;;;;;2.07;1.30;;;19.10;99.90;;;;;;5028838;28;20468;-69
2022/10/09 12:03:06;;;;;;;2.43;1.30;;;18.90;99.90;;;;;;5029069;28;20457;-68
2022/10/09 12:05:39;;;;;;;1.50;1.20;;;18.50;99.90;;;;;;5028732;28;21023;-67
2022/10/09 12:08:12;;;;;;;2.70;1.40;;;18.50;99.90;;;;;;5029191;28;20465;-67
2022/10/09 12:10:42;;;;;;;2.87;1.40;;;18.70;99.90;;;;;;5029301;28;20465;-67
2022/10/09 12:13:29;;;;;;;1.87;1.33;;;19.00;99.90;;;;;;5028381;28;20465;-67
2022/10/09 12:15:58;;;;;;;1.60;1.50;;;19.10;99.90;;;;;;5028960;28;20472;-67
2022/10/09 12:18:28;;;;;;;1.80;1.33;;;19.10;99.80;;;;;;5029165;28;20831;-67
2022/10/09 12:21:01;;;;;;;1.70;1.30;;;19.10;99.90;;;;;;5029020;28;20485;-67
2022/10/09 12:23:31;;;;;;;2.70;1.70;;;19.10;99.90;;;;;;5028174;28;20945;-68
2022/10/09 12:26:00;;;;;;;1.93;1.33;;;19.10;99.90;;;;;;5028937;28;20464;-68
2022/10/09 12:28:33;;;;;;;2.30;1.03;;;19.30;99.90;;;;;;5029130;28;20527;-67
2022/10/09 12:31:03;;;;;;;1.40;1.27;;;19.40;99.90;;;;;;5029063;28;20457;-67
2022/10/09 12:33:36;;;;;;;4.50;2.40;;;19.40;99.30;;;;;;5031588;28;20587;-67
2022/10/09 12:36:06;;;;;;;1.97;1.33;;;19.10;99.50;;;;;;5032432;28;20465;-67
2022/10/09 12:38:33;;;;;;;2.40;1.30;;;19.10;99.90;;;;;;5032054;28;20463;-67
2022/10/09 12:41:02;;;;;;;1.67;1.40;;;19.00;99.90;;;;;;5032419;28;20485;-67
2022/10/09 12:43:31;;;;;;;1.40;1.10;;;18.90;99.90;;;;;;5031383;28;20960;-67
2022/10/09 12:45:59;;;;;;;1.60;1.40;;;19.00;99.90;;;;;;5032493;28;20514;-67
2022/10/09 12:48:28;;;;;;;3.43;2.00;;;19.00;99.90;;;;;;5032021;28;20977;-68
2022/10/09 12:50:55;;;;;;;1.40;1.20;;;19.10;99.90;;;;;;5031628;28;20820;-67
2022/10/09 12:53:24;;;;;;;1.97;1.30;;;19.20;99.90;;;;;;5031580;28;20465;-67
2022/10/09 12:55:54;;;;;;;1.83;1.50;;;19.30;99.90;;;;;;5032247;28;20956;-67
2022/10/09 12:58:24;;;;;;;1.63;1.47;;;19.30;99.90;;;;;;5031269;28;20457;-67
2022/10/09 13:00:55;;;;;;;1.50;1.40;;;19.30;99.20;;;;;;5032524;28;20996;-67
2022/10/09 13:03:33;;;;;;;1.63;1.50;;;19.10;99.90;;;;;;5029195;28;20507;-67
2022/10/09 13:06:00;;;;;;;1.20;1.10;;;19.10;99.90;;;;;;5032201;28;20507;-67